Time;durP1;ratioP1;P1;durP2;ratioP2;P2;SDS_P1;SDS_P2;PMS_P1;PMS_P2;Temp;Humidity;BMP_temperature;BMP_pressure;BME280_temperature;BME280_humidity;BME280_pressure;Samples;Min_cycle;Max_cycle;Signal;HPM_P1;HPM_P2
2022/10/22 00:00:27;;;;;;;1.30;1.10;;;18.60;55.90;;;;;;5031179;28;20563;-77
2022/10/22 00:02:52;;;;;;;1.30;1.20;;;18.50;56.40;;;;;;5031823;28;20254;-80
2022/10/22 00:05:18;;;;;;;1.30;1.20;;;18.60;55.80;;;;;;5035147;28;20189;-76
2022/10/22 00:07:43;;;;;;;1.30;1.10;;;18.50;56.40;;;;;;5032661;28;20592;-77
2022/10/22 00:10:09;;;;;;;1.30;1.10;;;18.50;56.40;;;;;;5024044;28;20234;-76
2022/10/22 00:12:35;;;;;;;1.30;1.30;;;18.50;56.50;;;;;;5025685;28;20240;-77
2022/10/22 00:15:01;;;;;;;1.30;1.20;;;18.60;56.30;;;;;;5027924;28;20498;-76
2022/10/22 00:17:27;;;;;;;1.40;1.40;;;18.50;56.50;;;;;;5029325;28;20203;-75
2022/10/22 00:19:53;;;;;;;1.50;1.33;;;18.60;56.20;;;;;;5019356;28;20982;-77
2022/10/22 00:22:18;;;;;;;1.30;1.30;;;18.50;56.50;;;;;;5048934;22;20763;-69
2022/10/22 00:24:44;;;;;;;1.30;1.20;;;18.30;56.30;;;;;;5010589;28;20219;-69
2022/10/22 00:27:11;;;;;;;1.30;1.00;;;18.30;57.10;;;;;;5008156;28;20184;-69
2022/10/22 00:29:36;;;;;;;1.30;1.20;;;18.20;56.90;;;;;;5008317;28;20225;-68
2022/10/22 00:32:03;;;;;;;1.30;1.10;;;18.10;57.60;;;;;;5008749;28;20458;-70
2022/10/22 00:34:28;;;;;;;1.30;1.20;;;18.10;56.50;;;;;;5005982;28;20252;-70
2022/10/22 00:36:54;;;;;;;1.30;1.10;;;18.10;56.60;;;;;;5007363;28;20444;-69
2022/10/22 00:39:23;;;;;;;1.30;1.30;;;18.20;57.10;;;;;;5007715;28;20179;-69
2022/10/22 00:41:51;;;;;;;1.27;1.20;;;18.10;57.30;;;;;;5008223;28;20511;-68
2022/10/22 00:44:54;;;;;;;1.30;1.17;;;18.20;56.20;;;;;;5010228;28;20897;-68
2022/10/22 00:47:23;;;;;;;1.30;1.10;;;18.20;56.90;;;;;;5004110;28;20843;-69
2022/10/22 00:49:49;;;;;;;1.23;1.20;;;18.10;56.90;;;;;;5009788;28;20421;-69
2022/10/22 00:52:14;;;;;;;1.20;1.00;;;18.20;56.20;;;;;;5002606;28;20988;-69
2022/10/22 00:54:41;;;;;;;1.30;1.20;;;18.20;56.70;;;;;;5005189;28;20423;-71
2022/10/22 00:57:07;;;;;;;1.30;1.10;;;18.20;57.10;;;;;;5004549;28;20193;-69
2022/10/22 00:59:33;;;;;;;1.20;1.10;;;18.30;56.30;;;;;;5013423;28;20477;-69
2022/10/22 01:01:58;;;;;;;1.30;1.13;;;18.40;56.00;;;;;;5013990;28;20437;-69
2022/10/22 01:04:24;;;;;;;1.27;1.10;;;18.40;55.20;;;;;;5013724;28;20182;-71
2022/10/22 01:06:50;;;;;;;1.30;1.17;;;18.40;54.50;;;;;;5001835;28;20218;-69
2022/10/22 01:09:22;;;;;;;1.30;1.20;;;18.60;52.70;;;;;;5003914;28;20174;-68
2022/10/22 01:12:25;;;;;;;1.30;1.10;;;18.50;54.30;;;;;;5007086;28;20439;-68
2022/10/22 01:15:02;;;;;;;1.40;1.30;;;18.30;55.70;;;;;;5004094;28;20427;-70
2022/10/22 01:17:31;;;;;;;1.30;1.13;;;18.30;56.30;;;;;;5011582;28;20428;-69
2022/10/22 01:20:11;;;;;;;1.30;1.10;;;18.30;55.70;;;;;;5008037;28;20439;-70
2022/10/22 01:22:43;;;;;;;1.30;1.10;;;18.40;55.00;;;;;;5005962;28;20996;-69
2022/10/22 01:25:36;;;;;;;1.30;1.17;;;18.40;55.30;;;;;;5005555;28;20432;-71
2022/10/22 01:28:17;;;;;;;1.30;1.10;;;18.30;55.00;;;;;;5008805;28;20432;-69
2022/10/22 01:30:45;;;;;;;1.30;1.10;;;18.30;55.70;;;;;;5010913;28;20864;-71
2022/10/22 01:33:13;;;;;;;1.30;1.10;;;18.20;55.70;;;;;;5011114;28;20462;-69
2022/10/22 01:35:43;;;;;;;1.30;1.10;;;18.10;56.10;;;;;;5011379;28;20923;-70
2022/10/22 01:38:17;;;;;;;1.30;1.10;;;18.20;56.20;;;;;;5008837;28;20459;-69
2022/10/22 01:40:44;;;;;;;1.30;1.10;;;18.20;56.20;;;;;;5009696;28;20435;-70
2022/10/22 01:43:10;;;;;;;1.30;1.20;;;18.20;56.20;;;;;;5003152;28;20500;-69
2022/10/22 01:45:41;;;;;;;1.30;1.20;;;18.10;56.10;;;;;;5006830;28;20472;-69
2022/10/22 01:48:40;;;;;;;1.30;1.20;;;18.10;56.10;;;;;;5008579;28;20559;-69
2022/10/22 01:51:35;;;;;;;1.30;1.10;;;18.10;56.10;;;;;;4998619;28;20919;-69
2022/10/22 01:54:25;;;;;;;1.30;1.20;;;18.00;56.60;;;;;;5004523;28;20518;-69
2022/10/22 01:57:15;;;;;;;1.30;1.30;;;17.90;56.90;;;;;;5008365;28;20435;-69
2022/10/22 02:00:00;;;;;;;1.30;1.20;;;17.90;57.00;;;;;;5010142;28;20443;-69
2022/10/22 02:02:51;;;;;;;1.30;1.10;;;17.90;57.00;;;;;;5004206;28;20535;-69
2022/10/22 02:05:23;;;;;;;1.30;1.10;;;17.90;56.80;;;;;;5005028;28;20984;-69
2022/10/22 02:07:58;;;;;;;1.30;1.10;;;17.70;57.00;;;;;;5012689;28;20443;-69
2022/10/22 02:10:24;;;;;;;1.30;1.00;;;17.70;56.00;;;;;;5007246;28;20416;-70
2022/10/22 02:12:53;;;;;;;1.30;1.20;;;17.60;55.60;;;;;;5008867;28;20964;-69
2022/10/22 02:15:22;;;;;;;1.30;1.10;;;17.70;55.70;;;;;;5007310;28;20437;-69
2022/10/22 02:17:49;;;;;;;1.30;1.10;;;17.80;55.80;;;;;;5006964;28;20860;-69
2022/10/22 02:20:17;;;;;;;1.30;1.10;;;18.00;55.20;;;;;;5000823;28;20932;-69
2022/10/22 02:22:43;;;;;;;1.30;1.20;;;17.90;55.70;;;;;;5008500;28;20541;-69
2022/10/22 02:25:11;;;;;;;1.30;1.10;;;17.90;55.40;;;;;;5006355;28;20945;-69
2022/10/22 02:28:02;;;;;;;1.30;1.10;;;17.90;55.90;;;;;;5010305;28;20428;-69
2022/10/22 02:30:31;;;;;;;1.30;1.10;;;17.30;56.60;;;;;;4986712;28;20433;-69
2022/10/22 02:33:06;;;;;;;1.30;1.13;;;17.10;57.10;;;;;;5008388;28;20522;-69
2022/10/22 02:35:32;;;;;;;1.30;1.10;;;17.30;58.80;;;;;;5005970;28;20436;-69
2022/10/22 02:37:59;;;;;;;1.30;1.10;;;17.70;55.70;;;;;;5011098;28;20861;-69
2022/10/22 02:40:26;;;;;;;1.30;1.20;;;17.70;54.90;;;;;;5006292;28;20417;-69
2022/10/22 02:42:52;;;;;;;1.30;1.10;;;17.80;54.70;;;;;;5010957;28;20507;-69
2022/10/22 02:45:18;;;;;;;1.30;1.10;;;17.80;54.40;;;;;;5010284;28;20488;-69
2022/10/22 02:47:44;;;;;;;1.30;1.10;;;17.60;53.80;;;;;;5011067;28;20443;-69
2022/10/22 02:50:10;;;;;;;1.30;1.20;;;17.50;57.70;;;;;;5009046;28;20442;-69
2022/10/22 02:52:36;;;;;;;1.30;1.10;;;17.60;57.50;;;;;;5006748;28;20495;-69
2022/10/22 02:55:02;;;;;;;1.30;1.20;;;17.90;55.90;;;;;;5002141;28;20184;-69
2022/10/22 02:57:28;;;;;;;1.30;1.10;;;18.00;55.20;;;;;;5008911;28;20464;-69
2022/10/22 02:59:54;;;;;;;1.30;1.10;;;17.70;55.70;;;;;;5009351;28;20424;-69
2022/10/22 03:02:19;;;;;;;1.30;1.10;;;17.90;55.90;;;;;;5011853;28;20255;-70
2022/10/22 03:04:45;;;;;;;1.30;1.20;;;17.70;56.70;;;;;;5006024;28;20232;-69
2022/10/22 03:07:10;;;;;;;1.30;1.10;;;17.80;56.80;;;;;;5008386;28;20696;-69
2022/10/22 03:09:36;;;;;;;1.30;1.10;;;17.80;56.00;;;;;;5010918;28;20184;-69
2022/10/22 03:12:02;;;;;;;1.30;1.10;;;17.80;56.40;;;;;;5011269;28;20205;-69
2022/10/22 03:14:27;;;;;;;1.30;1.10;;;17.80;56.50;;;;;;5003659;28;20204;-69
2022/10/22 03:16:53;;;;;;;1.30;1.10;;;17.70;56.70;;;;;;5004047;28;20567;-68
2022/10/22 03:19:18;;;;;;;1.30;1.00;;;17.50;55.50;;;;;;5007042;28;20181;-69
2022/10/22 03:21:58;;;;;;;1.30;1.20;;;17.50;56.60;;;;;;5005352;28;20253;-69
2022/10/22 03:24:45;;;;;;;1.30;1.30;;;17.60;56.90;;;;;;5003789;28;20170;-70
2022/10/22 03:27:13;;;;;;;1.30;1.10;;;17.70;57.30;;;;;;5008676;28;20416;-69
2022/10/22 03:29:40;;;;;;;1.30;1.10;;;17.70;56.70;;;;;;5008863;28;20436;-69
2022/10/22 03:32:06;;;;;;;1.30;1.10;;;17.70;56.70;;;;;;5008230;28;20466;-68
2022/10/22 03:34:32;;;;;;;1.30;1.10;;;17.70;56.80;;;;;;5011295;28;20926;-69
2022/10/22 03:37:00;;;;;;;1.27;1.10;;;17.80;56.70;;;;;;5011586;28;20448;-69
2022/10/22 03:39:27;;;;;;;1.30;1.10;;;17.80;55.80;;;;;;5008750;28;20181;-69
2022/10/22 03:41:52;;;;;;;1.30;1.10;;;17.90;55.90;;;;;;5010214;28;20456;-69
2022/10/22 03:44:20;;;;;;;1.30;1.20;;;17.80;55.30;;;;;;5010530;28;20428;-70
2022/10/22 03:46:46;;;;;;;1.30;1.10;;;17.80;57.40;;;;;;5003490;28;20201;-70
2022/10/22 03:49:12;;;;;;;1.30;1.20;;;17.90;55.90;;;;;;5008117;28;20530;-69
2022/10/22 03:51:37;;;;;;;1.30;1.10;;;17.90;55.90;;;;;;5001659;28;20200;-69
2022/10/22 03:54:03;;;;;;;1.37;1.27;;;18.00;56.00;;;;;;5010919;28;20199;-69
2022/10/22 03:56:29;;;;;;;1.50;1.10;;;18.10;55.10;;;;;;5002114;28;20196;-69
2022/10/22 03:58:56;;;;;;;3.20;1.30;;;18.10;54.60;;;;;;5001359;28;20436;-69
2022/10/22 04:01:23;;;;;;;1.30;1.00;;;18.20;51.50;;;;;;5005667;28;20203;-69
2022/10/22 04:03:48;;;;;;;1.30;1.10;;;18.30;50.50;;;;;;5000405;28;20421;-69
2022/10/22 04:06:14;;;;;;;1.30;1.20;;;18.40;50.90;;;;;;5008230;28;20439;-70
2022/10/22 04:08:43;;;;;;;1.30;1.17;;;18.10;50.80;;;;;;5006920;28;20275;-69
2022/10/22 04:11:10;;;;;;;1.30;1.20;;;18.20;51.80;;;;;;5005294;28;20529;-69
2022/10/22 04:13:35;;;;;;;1.30;1.10;;;18.20;52.60;;;;;;5002547;28;20459;-69
2022/10/22 04:16:16;;;;;;;1.30;1.10;;;18.10;53.40;;;;;;5010166;28;20424;-72
2022/10/22 04:18:42;;;;;;;1.30;1.10;;;18.00;53.80;;;;;;5001034;28;20182;-69
2022/10/22 04:21:11;;;;;;;1.30;1.10;;;17.90;53.30;;;;;;5008308;28;20438;-69
2022/10/22 04:23:36;;;;;;;1.30;1.10;;;17.70;53.80;;;;;;5006691;28;20477;-69
2022/10/22 04:26:06;;;;;;;1.30;1.10;;;17.80;53.70;;;;;;5010863;28;20455;-69
2022/10/22 04:28:33;;;;;;;1.30;1.10;;;17.80;54.10;;;;;;5005194;28;20707;-69
2022/10/22 04:30:59;;;;;;;1.30;1.20;;;17.80;54.00;;;;;;5004618;28;20888;-69
2022/10/22 04:33:24;;;;;;;1.30;1.10;;;17.80;53.40;;;;;;5004271;28;20513;-69
2022/10/22 04:35:50;;;;;;;1.30;1.10;;;17.90;53.10;;;;;;5000340;28;20182;-69
2022/10/22 04:38:16;;;;;;;1.30;1.10;;;18.00;52.60;;;;;;4998056;28;20184;-70
2022/10/22 04:40:41;;;;;;;1.27;1.10;;;18.00;52.50;;;;;;5002386;28;20169;-69
2022/10/22 04:43:07;;;;;;;1.30;1.20;;;17.90;53.60;;;;;;5001316;28;20276;-69
2022/10/22 04:45:34;;;;;;;1.30;1.10;;;17.70;53.90;;;;;;5003103;28;20177;-69
2022/10/22 04:47:59;;;;;;;1.30;1.10;;;17.60;53.80;;;;;;4996788;28;20197;-69
2022/10/22 04:50:25;;;;;;;1.30;1.10;;;17.60;54.60;;;;;;4997673;28;20427;-69
2022/10/22 04:52:50;;;;;;;1.30;1.20;;;17.60;54.30;;;;;;5004671;28;20573;-69
2022/10/22 04:55:16;;;;;;;1.30;1.03;;;17.60;54.70;;;;;;5001755;28;20182;-70
2022/10/22 04:57:42;;;;;;;1.30;1.20;;;17.80;53.00;;;;;;5007554;28;20193;-69
2022/10/22 05:00:08;;;;;;;1.30;1.07;;;17.80;53.10;;;;;;5004573;28;20181;-69
2022/10/22 05:02:33;;;;;;;1.40;1.20;;;17.60;54.10;;;;;;5006438;28;20208;-69
2022/10/22 05:04:59;;;;;;;1.30;1.10;;;17.70;53.20;;;;;;5009786;28;20463;-69
2022/10/22 05:07:25;;;;;;;1.30;1.10;;;17.70;53.90;;;;;;5008338;28;20182;-70
2022/10/22 05:09:50;;;;;;;1.30;1.10;;;17.70;53.20;;;;;;5004143;28;20259;-69
2022/10/22 05:12:16;;;;;;;1.30;1.10;;;17.70;53.50;;;;;;5003611;28;20254;-69
2022/10/22 05:14:41;;;;;;;1.87;1.30;;;17.70;54.00;;;;;;5003929;28;20212;-69
2022/10/22 05:17:07;;;;;;;1.30;1.10;;;17.60;54.70;;;;;;5000247;28;20188;-70
2022/10/22 05:19:32;;;;;;;1.30;1.03;;;17.60;54.30;;;;;;5002277;28;20641;-69
2022/10/22 05:22:01;;;;;;;1.30;1.20;;;17.70;53.70;;;;;;5008550;28;20205;-69
2022/10/22 05:24:28;;;;;;;1.27;1.10;;;18.00;51.40;;;;;;5002877;28;20196;-69
2022/10/22 05:26:55;;;;;;;1.30;1.20;;;18.10;52.40;;;;;;5006735;28;20455;-69
2022/10/22 05:29:22;;;;;;;1.30;1.00;;;18.00;53.00;;;;;;5005580;28;20451;-70
2022/10/22 05:31:48;;;;;;;1.30;1.10;;;17.80;53.80;;;;;;5011691;28;20807;-69
2022/10/22 05:34:14;;;;;;;1.30;1.10;;;18.00;53.10;;;;;;5010288;28;20474;-69
2022/10/22 05:36:40;;;;;;;1.50;1.37;;;17.80;54.00;;;;;;5010009;28;20197;-70
2022/10/22 05:39:06;;;;;;;1.30;1.20;;;17.70;54.50;;;;;;5008616;28;20177;-70
2022/10/22 05:41:33;;;;;;;1.70;1.40;;;17.80;53.30;;;;;;5010041;28;20447;-69
2022/10/22 05:43:59;;;;;;;1.20;1.10;;;17.80;51.80;;;;;;5003634;28;20442;-69
2022/10/22 05:46:27;;;;;;;1.30;1.07;;;18.00;52.30;;;;;;5006564;28;20439;-69
2022/10/22 05:48:55;;;;;;;1.40;1.13;;;17.90;52.80;;;;;;5005175;28;20444;-69
2022/10/22 05:51:21;;;;;;;1.30;1.20;;;17.70;54.60;;;;;;5006715;28;20461;-69
2022/10/22 05:53:51;;;;;;;1.30;1.20;;;17.70;54.50;;;;;;5004549;28;20809;-69
2022/10/22 05:56:17;;;;;;;1.30;1.20;;;17.60;54.90;;;;;;5009620;28;20428;-69
2022/10/22 05:58:44;;;;;;;1.83;1.50;;;17.80;54.20;;;;;;5004822;28;20777;-69
2022/10/22 06:01:15;;;;;;;1.30;1.10;;;17.90;54.70;;;;;;5008054;28;20271;-69
2022/10/22 06:03:42;;;;;;;1.30;1.20;;;17.80;54.60;;;;;;5011859;28;20427;-77
2022/10/22 06:06:28;;;;;;;1.30;1.10;;;17.90;54.60;;;;;;5008793;28;20441;-73
2022/10/22 06:08:54;;;;;;;1.30;1.20;;;17.80;54.40;;;;;;5005139;28;20429;-73
2022/10/22 06:11:22;;;;;;;1.30;1.20;;;17.70;55.20;;;;;;5010430;28;20960;-74
2022/10/22 06:13:49;;;;;;;1.23;1.10;;;17.80;54.10;;;;;;5005356;28;20544;-73
2022/10/22 06:16:15;;;;;;;1.30;1.10;;;17.70;54.80;;;;;;5007548;28;20528;-74
2022/10/22 06:18:40;;;;;;;1.30;1.10;;;17.80;54.00;;;;;;5010998;28;20861;-73
2022/10/22 06:21:08;;;;;;;1.30;1.10;;;17.90;52.70;;;;;;5009006;28;20199;-73
2022/10/22 06:23:34;;;;;;;1.30;1.10;;;17.90;52.80;;;;;;5001170;28;20970;-73
2022/10/22 06:26:01;;;;;;;1.30;1.00;;;17.80;54.00;;;;;;5012477;28;20881;-73
2022/10/22 06:28:27;;;;;;;1.30;1.10;;;17.70;54.00;;;;;;5011067;28;20452;-73
2022/10/22 06:30:52;;;;;;;1.30;1.10;;;17.70;54.10;;;;;;5019386;28;20467;-73
2022/10/22 06:33:18;;;;;;;1.30;1.20;;;17.60;54.50;;;;;;5010085;28;20497;-73
2022/10/22 06:35:44;;;;;;;1.30;1.20;;;17.30;54.70;;;;;;5011112;28;20181;-73
2022/10/22 06:38:10;;;;;;;1.30;1.20;;;17.10;56.90;;;;;;5010188;28;20219;-73
2022/10/22 06:40:35;;;;;;;1.30;1.20;;;17.30;57.10;;;;;;5010097;28;20260;-73
2022/10/22 06:43:01;;;;;;;1.30;1.10;;;17.50;56.30;;;;;;5009441;28;20463;-72
2022/10/22 06:45:26;;;;;;;1.30;1.00;;;17.80;54.90;;;;;;5007101;28;20189;-70
2022/10/22 06:47:52;;;;;;;1.30;1.20;;;18.00;53.60;;;;;;5007190;28;20177;-70
2022/10/22 06:50:18;;;;;;;1.30;1.30;;;18.00;54.80;;;;;;5009284;28;20204;-70
2022/10/22 06:52:44;;;;;;;1.40;1.23;;;17.90;54.70;;;;;;5008498;28;20759;-72
2022/10/22 06:55:10;;;;;;;1.30;1.10;;;18.00;54.30;;;;;;5002122;28;20178;-73
2022/10/22 06:57:35;;;;;;;1.50;1.30;;;18.10;54.00;;;;;;5010281;28;20258;-70
2022/10/22 07:00:01;;;;;;;1.30;1.10;;;18.20;54.30;;;;;;5011559;28;20182;-70
2022/10/22 07:02:26;;;;;;;1.30;1.20;;;18.20;54.10;;;;;;5004276;28;20209;-71
2022/10/22 07:04:52;;;;;;;1.30;1.30;;;18.30;52.90;;;;;;5008313;28;20181;-75
2022/10/22 07:07:17;;;;;;;1.40;1.20;;;18.30;53.20;;;;;;5008679;28;20652;-71
2022/10/22 07:09:46;;;;;;;1.30;1.20;;;18.30;53.80;;;;;;5011419;28;20193;-71
2022/10/22 07:12:12;;;;;;;1.30;1.20;;;18.40;51.80;;;;;;5009383;28;20247;-70
2022/10/22 07:14:38;;;;;;;1.30;1.20;;;18.50;49.60;;;;;;5005737;28;20461;-70
2022/10/22 07:17:03;;;;;;;1.30;1.20;;;18.50;52.10;;;;;;5010875;28;20666;-73
2022/10/22 07:19:30;;;;;;;1.30;1.10;;;18.40;53.40;;;;;;5011389;28;20184;-73
2022/10/22 07:21:56;;;;;;;1.73;1.30;;;18.40;54.00;;;;;;5010927;28;20296;-70
2022/10/22 07:24:21;;;;;;;1.30;1.20;;;18.50;53.20;;;;;;5008901;28;20585;-70
2022/10/22 07:26:47;;;;;;;1.30;1.20;;;18.40;55.50;;;;;;5004750;28;20962;-70
2022/10/22 07:29:14;;;;;;;1.40;1.30;;;18.30;54.70;;;;;;5010005;28;20189;-70
2022/10/22 07:31:40;;;;;;;1.30;1.20;;;18.40;54.80;;;;;;5010258;28;20451;-70
2022/10/22 07:34:06;;;;;;;1.30;1.13;;;18.40;54.70;;;;;;5009947;28;20465;-70
2022/10/22 07:36:32;;;;;;;1.27;1.20;;;18.60;53.90;;;;;;5010428;28;20431;-72
2022/10/22 07:38:59;;;;;;;1.30;1.17;;;18.70;54.10;;;;;;5007557;28;20444;-70
2022/10/22 07:41:26;;;;;;;1.30;1.27;;;18.80;53.00;;;;;;5010454;28;20699;-70
2022/10/22 07:43:52;;;;;;;1.50;1.30;;;19.00;52.60;;;;;;5004173;28;20763;-70
2022/10/22 07:46:18;;;;;;;1.80;1.23;;;19.00;51.90;;;;;;5010487;28;20440;-70
2022/10/22 07:48:44;;;;;;;1.60;1.40;;;19.10;51.10;;;;;;5009212;28;20179;-70
2022/10/22 07:51:09;;;;;;;1.30;1.10;;;19.20;50.80;;;;;;5006722;28;20498;-72
2022/10/22 07:53:35;;;;;;;1.30;1.17;;;19.30;51.50;;;;;;5005886;28;20232;-70
2022/10/22 07:56:01;;;;;;;1.67;1.30;;;19.30;51.90;;;;;;5006781;28;20255;-70
2022/10/22 07:58:27;;;;;;;1.40;1.30;;;19.40;50.80;;;;;;5010119;28;20995;-70
2022/10/22 08:00:59;;;;;;;1.70;1.60;;;19.30;51.90;;;;;;5011303;28;20175;-71
2022/10/22 08:03:25;;;;;;;1.30;1.20;;;19.50;52.70;;;;;;4999942;28;20181;-71
2022/10/22 08:05:51;;;;;;;1.40;1.20;;;19.40;49.90;;;;;;5006025;28;20422;-70
2022/10/22 08:08:17;;;;;;;1.60;1.40;;;19.40;50.60;;;;;;5008742;28;20497;-70
2022/10/22 08:10:43;;;;;;;1.27;1.17;;;18.60;54.20;;;;;;5009029;28;20436;-71
2022/10/22 08:13:09;;;;;;;1.30;1.10;;;18.10;55.60;;;;;;5009999;28;20204;-70
2022/10/22 08:15:35;;;;;;;1.30;1.13;;;18.20;56.20;;;;;;5005499;28;20437;-70
2022/10/22 08:18:01;;;;;;;1.97;1.30;;;18.10;56.10;;;;;;5003966;28;20420;-70
2022/10/22 08:20:27;;;;;;;1.30;1.10;;;18.10;56.10;;;;;;5008706;28;20800;-71
2022/10/22 08:22:52;;;;;;;1.30;1.30;;;18.40;55.00;;;;;;5004840;28;20210;-71
2022/10/22 08:25:18;;;;;;;1.40;1.40;;;18.70;53.60;;;;;;5009496;28;20186;-70
2022/10/22 08:27:44;;;;;;;1.63;1.60;;;18.40;55.60;;;;;;5010643;28;21012;-70
2022/10/22 08:30:11;;;;;;;1.60;1.40;;;18.10;55.20;;;;;;5005059;28;20257;-72
2022/10/22 08:32:36;;;;;;;1.30;1.30;;;18.20;56.40;;;;;;5002721;28;20964;-73
2022/10/22 08:35:02;;;;;;;1.30;1.13;;;18.20;57.40;;;;;;5004062;28;20428;-70
2022/10/22 08:37:27;;;;;;;1.30;1.20;;;18.00;56.00;;;;;;5001453;28;20238;-71
2022/10/22 08:39:53;;;;;;;1.43;1.23;;;18.10;56.10;;;;;;5010507;28;20187;-71
2022/10/22 08:42:34;;;;;;;1.30;1.20;;;18.30;54.50;;;;;;5009904;28;20238;-73
2022/10/22 08:45:02;;;;;;;1.60;1.30;;;18.60;53.90;;;;;;5010494;28;20184;-71
2022/10/22 08:47:31;;;;;;;1.30;1.20;;;19.00;52.30;;;;;;5009928;28;20783;-71
2022/10/22 08:49:58;;;;;;;1.30;1.30;;;18.90;51.40;;;;;;5010496;28;20949;-71
2022/10/22 08:52:24;;;;;;;1.57;1.30;;;19.30;50.80;;;;;;5007563;28;20456;-70
2022/10/22 08:54:56;;;;;;;1.33;1.30;;;19.00;51.20;;;;;;5002084;28;20469;-74
2022/10/22 08:57:41;;;;;;;1.47;1.40;;;19.10;51.10;;;;;;5006788;28;20275;-74
2022/10/22 09:00:10;;;;;;;1.30;1.30;;;19.00;51.70;;;;;;5003818;28;20450;-71
2022/10/22 09:03:18;;;;;;;1.40;1.33;;;19.00;52.20;;;;;;5010794;28;20462;-72
2022/10/22 09:06:15;;;;;;;1.40;1.30;;;19.10;53.30;;;;;;5013273;28;20893;-73
2022/10/22 09:08:42;;;;;;;2.90;1.30;;;19.40;50.70;;;;;;5012595;28;20450;-70
2022/10/22 09:11:43;;;;;;;1.40;1.20;;;19.60;49.60;;;;;;5010140;28;20520;-75
2022/10/22 09:14:14;;;;;;;1.30;1.20;;;19.70;49.30;;;;;;5007097;28;20874;-71
2022/10/22 09:17:10;;;;;;;1.30;1.30;;;19.50;49.30;;;;;;5009759;28;20466;-72
2022/10/22 09:19:58;;;;;;;1.30;1.17;;;19.30;50.20;;;;;;5009749;28;20521;-70
2022/10/22 09:22:41;;;;;;;1.30;1.20;;;19.10;52.30;;;;;;5009997;28;20466;-71
2022/10/22 09:25:22;;;;;;;1.50;1.40;;;19.30;51.70;;;;;;5012050;28;20818;-70
2022/10/22 09:27:49;;;;;;;3.10;1.50;;;19.80;50.20;;;;;;5009127;28;20439;-74
2022/10/22 09:30:20;;;;;;;1.37;1.30;;;20.20;47.60;;;;;;5004616;28;20425;-71
2022/10/22 09:33:10;;;;;;;1.73;1.30;;;20.70;46.40;;;;;;5003272;28;20825;-73
2022/10/22 09:35:47;;;;;;;1.30;1.10;;;21.10;45.30;;;;;;5002613;28;20428;-70
2022/10/22 09:38:14;;;;;;;1.40;1.10;;;21.40;43.50;;;;;;5004230;28;20430;-71
2022/10/22 09:40:46;;;;;;;1.30;1.20;;;21.10;45.90;;;;;;5013273;28;20428;-70
2022/10/22 09:43:13;;;;;;;1.30;1.17;;;21.00;44.50;;;;;;5004861;28;20451;-70
2022/10/22 09:45:39;;;;;;;1.30;1.23;;;21.10;45.00;;;;;;5013098;28;21016;-70
2022/10/22 09:48:19;;;;;;;1.30;1.20;;;21.00;45.40;;;;;;5013089;28;20428;-73
2022/10/22 09:50:47;;;;;;;1.90;1.20;;;21.20;44.20;;;;;;5007133;28;20279;-73
2022/10/22 09:53:29;;;;;;;1.30;1.20;;;21.40;44.20;;;;;;5005176;28;20507;-72
2022/10/22 09:55:58;;;;;;;1.30;1.20;;;21.50;42.00;;;;;;5005680;28;20439;-73
2022/10/22 09:58:24;;;;;;;1.30;1.20;;;21.20;42.80;;;;;;5005115;28;20420;-73
2022/10/22 10:00:59;;;;;;;1.30;1.30;;;20.80;43.00;;;;;;4997992;28;20931;-70
2022/10/22 10:03:27;;;;;;;1.30;1.30;;;20.60;43.90;;;;;;5004936;28;20511;-70
2022/10/22 10:05:58;;;;;;;1.30;1.20;;;20.60;45.20;;;;;;5012460;28;20445;-70
2022/10/22 10:08:24;;;;;;;1.40;1.40;;;21.00;45.10;;;;;;5006479;28;20469;-73
2022/10/22 10:11:12;;;;;;;1.30;1.20;;;21.50;42.80;;;;;;5002322;28;20433;-70
2022/10/22 10:13:51;;;;;;;1.50;1.40;;;21.00;43.70;;;;;;5005349;28;20475;-70
2022/10/22 10:16:35;;;;;;;1.37;1.37;;;20.40;45.30;;;;;;5002495;28;20446;-69
2022/10/22 10:19:43;;;;;;;1.30;1.30;;;20.10;46.40;;;;;;5005876;28;20499;-70
2022/10/22 10:22:24;;;;;;;1.30;1.20;;;20.70;44.90;;;;;;5008324;28;20458;-70
2022/10/22 10:25:13;;;;;;;1.90;1.20;;;21.50;41.50;;;;;;5005274;28;20425;-73
2022/10/22 10:27:46;;;;;;;1.40;1.30;;;21.60;42.60;;;;;;5008574;28;20869;-71
2022/10/22 10:30:16;;;;;;;1.73;1.50;;;21.40;41.30;;;;;;5010130;28;21024;-70
2022/10/22 10:32:47;;;;;;;1.33;1.30;;;21.40;43.00;;;;;;5004572;28;20449;-70
2022/10/22 10:35:38;;;;;;;1.30;1.23;;;21.90;38.90;;;;;;5009692;28;20435;-70
2022/10/22 10:38:37;;;;;;;1.30;1.20;;;21.30;40.80;;;;;;5009532;28;20478;-73
2022/10/22 10:41:06;;;;;;;1.30;1.20;;;21.50;39.90;;;;;;5010962;28;20423;-70
2022/10/22 10:43:41;;;;;;;1.40;1.20;;;20.80;41.30;;;;;;5001344;28;20427;-70
2022/10/22 10:46:28;;;;;;;1.30;1.10;;;20.90;41.60;;;;;;5003670;28;20821;-70
2022/10/22 10:49:02;;;;;;;1.77;1.20;;;21.20;41.00;;;;;;5010409;28;20444;-70
2022/10/22 10:51:53;;;;;;;1.57;1.20;;;21.30;40.20;;;;;;5011297;28;20515;-70
2022/10/22 10:54:31;;;;;;;1.27;1.20;;;22.00;39.90;;;;;;5011227;28;20466;-73
2022/10/22 10:57:10;;;;;;;1.50;1.40;;;22.70;37.90;;;;;;5006905;28;20793;-74
2022/10/22 10:59:53;;;;;;;1.40;1.33;;;23.00;36.40;;;;;;5008191;28;20436;-70
2022/10/22 11:02:41;;;;;;;1.53;1.30;;;22.40;36.20;;;;;;5006122;28;20954;-70
2022/10/22 11:05:25;;;;;;;1.30;1.20;;;21.00;40.20;;;;;;5005638;28;21222;-71
2022/10/22 11:07:56;;;;;;;1.50;1.33;;;20.60;41.30;;;;;;5007807;28;20537;-73
2022/10/22 11:10:52;;;;;;;1.30;1.10;;;21.10;40.30;;;;;;5004880;28;20481;-68
2022/10/22 11:13:27;;;;;;;1.70;1.30;;;22.00;38.90;;;;;;5000255;28;20465;-69
2022/10/22 11:16:17;;;;;;;1.30;1.20;;;21.80;39.00;;;;;;5008395;28;20482;-69
2022/10/22 11:18:57;;;;;;;1.40;1.20;;;21.90;38.50;;;;;;5006391;28;20476;-71
2022/10/22 11:22:04;;;;;;;1.30;1.20;;;22.50;36.20;;;;;;5008704;28;20885;-69
2022/10/22 11:24:38;;;;;;;1.60;1.30;;;23.50;33.70;;;;;;4985054;28;20433;-70
2022/10/22 11:27:09;;;;;;;1.53;1.33;;;22.30;34.30;;;;;;5009245;28;20417;-69
2022/10/22 11:29:40;;;;;;;1.50;1.30;;;21.70;37.60;;;;;;5000552;28;20875;-69
2022/10/22 11:32:16;;;;;;;1.30;1.20;;;22.80;36.30;;;;;;5010641;28;20968;-70
2022/10/22 11:34:47;;;;;;;1.30;1.20;;;23.20;34.00;;;;;;5010236;28;21023;-70
2022/10/22 11:37:14;;;;;;;1.30;1.20;;;23.20;35.00;;;;;;5008801;28;20902;-69
2022/10/22 11:39:42;;;;;;;1.53;1.20;;;23.90;33.00;;;;;;4992649;28;20435;-71
2022/10/22 11:42:17;;;;;;;1.30;1.20;;;24.80;33.80;;;;;;5001421;28;20535;-69
2022/10/22 11:45:02;;;;;;;1.60;1.33;;;23.90;32.60;;;;;;5007681;28;20451;-69
2022/10/22 11:47:57;;;;;;;1.30;1.23;;;23.90;31.20;;;;;;5003812;28;20490;-69
2022/10/22 11:50:42;;;;;;;1.20;1.10;;;23.90;32.20;;;;;;5001023;28;20793;-68
2022/10/22 11:53:13;;;;;;;2.80;1.40;;;23.40;32.30;;;;;;5003386;28;20468;-71
2022/10/22 11:55:44;;;;;;;1.40;1.30;;;22.90;34.10;;;;;;5002297;28;20427;-70
2022/10/22 11:58:32;;;;;;;1.20;1.17;;;23.10;33.80;;;;;;5012953;28;20404;-70
2022/10/22 12:01:27;;;;;;;1.40;1.40;;;22.90;33.70;;;;;;4999881;28;20421;-70
2022/10/22 12:03:58;;;;;;;1.30;1.20;;;22.70;33.60;;;;;;5004373;28;20443;-68
2022/10/22 12:06:28;;;;;;;1.30;1.20;;;22.00;34.60;;;;;;5008952;28;20443;-70
2022/10/22 12:08:53;;;;;;;1.50;1.30;;;22.10;34.10;;;;;;5006487;28;20775;-68
2022/10/22 12:11:27;;;;;;;1.30;1.20;;;21.70;34.80;;;;;;5003971;28;20453;-68
2022/10/22 12:14:15;;;;;;;1.40;1.20;;;21.60;34.70;;;;;;5005645;28;20201;-69
2022/10/22 12:16:55;;;;;;;1.30;1.20;;;22.40;37.10;;;;;;5006264;28;20444;-69
2022/10/22 12:19:50;;;;;;;1.30;1.20;;;23.20;32.80;;;;;;5006094;28;20457;-70
2022/10/22 12:22:17;;;;;;;1.63;1.47;;;23.30;30.00;;;;;;5008881;28;20463;-68
2022/10/22 12:24:46;;;;;;;1.90;1.40;;;23.50;30.30;;;;;;5002126;28;21000;-69
2022/10/22 12:27:24;;;;;;;1.40;1.30;;;22.90;30.00;;;;;;5007185;28;20459;-68
2022/10/22 12:29:54;;;;;;;1.40;1.33;;;22.70;31.20;;;;;;4999226;28;20442;-68
2022/10/22 12:32:20;;;;;;;1.30;1.20;;;23.10;29.40;;;;;;5007603;28;20822;-69
2022/10/22 12:34:47;;;;;;;1.30;1.20;;;23.30;29.00;;;;;;5008218;28;20471;-68
2022/10/22 12:37:15;;;;;;;1.30;1.10;;;23.70;32.40;;;;;;5001637;28;20218;-68
2022/10/22 12:39:41;;;;;;;1.63;1.37;;;23.40;29.10;;;;;;5005342;28;20463;-73
2022/10/22 12:42:11;;;;;;;1.83;1.43;;;22.90;30.30;;;;;;5006635;28;20983;-72
2022/10/22 12:44:37;;;;;;;1.30;1.20;;;22.20;30.20;;;;;;5008294;28;20200;-69
2022/10/22 12:47:04;;;;;;;1.30;1.20;;;21.60;31.10;;;;;;5011345;28;20508;-73
2022/10/22 12:49:37;;;;;;;1.40;1.40;;;22.00;31.30;;;;;;5011082;28;20184;-69
2022/10/22 12:52:06;;;;;;;1.30;1.20;;;21.90;33.70;;;;;;5010863;28;21018;-71
2022/10/22 12:54:34;;;;;;;1.30;1.27;;;22.10;32.10;;;;;;5002851;28;20470;-69
2022/10/22 12:57:00;;;;;;;1.40;1.30;;;22.50;31.90;;;;;;5004188;28;20491;-70
2022/10/22 12:59:36;;;;;;;1.63;1.40;;;22.80;32.10;;;;;;5003027;28;20444;-70
2022/10/22 13:02:10;;;;;;;1.67;1.33;;;22.90;30.40;;;;;;4997312;28;20440;-71
2022/10/22 13:04:37;;;;;;;1.70;1.30;;;23.40;30.00;;;;;;4993698;28;20460;-70
2022/10/22 13:07:17;;;;;;;1.53;1.27;;;23.00;29.20;;;;;;5003652;28;20432;-71